<?xml version="1.0" encoding="UTF-8" standalone="no" ?>
<gpx xmlns="http://www.topografix.com/GPX/1/1" xmlns:xsi="http://www.w3.org/2001/XMLSchema-instance" xsi:schemaLocation="http://www.topografix.com/GPX/1/1 http://www.topografix.com/GPX/1/1/gpx.xsd" version="1.1" creator="VisuGPX - https://www.visugpx.com">
  <metadata>
    <name>Claveizolles 2bis</name>
  </metadata>
  <trk>
    <name><![CDATA[Claveizolles 2bis]]></name>
    <trkseg>
      <trkpt lat="46.10072" lon="4.49484">
        <ele>456</ele>
        <time>2020-05-21T08:44:30+02:00</time>
      </trkpt>
      <trkpt lat="46.10065" lon="4.49537">
        <ele>453</ele>
        <time>2020-05-21T08:44:31+02:00</time>
      </trkpt>
      <trkpt lat="46.10026" lon="4.49526">
        <ele>451</ele>
        <time>2020-05-21T08:45:44+02:00</time>
      </trkpt>
      <trkpt lat="46.10001" lon="4.49517">
        <ele>449</ele>
        <time>2020-05-21T08:46:19+02:00</time>
      </trkpt>
      <trkpt lat="46.09997" lon="4.49477">
        <ele>452</ele>
        <time>2020-05-21T08:46:56+02:00</time>
      </trkpt>
      <trkpt lat="46.10001" lon="4.49436">
        <ele>455</ele>
        <time>2020-05-21T08:47:34+02:00</time>
      </trkpt>
      <trkpt lat="46.10011" lon="4.49402">
        <ele>459</ele>
        <time>2020-05-21T08:48:09+02:00</time>
      </trkpt>
      <trkpt lat="46.10031" lon="4.49375">
        <ele>462</ele>
        <time>2020-05-21T08:48:45+02:00</time>
      </trkpt>
      <trkpt lat="46.10055" lon="4.49358">
        <ele>465</ele>
        <time>2020-05-21T08:49:21+02:00</time>
      </trkpt>
      <trkpt lat="46.10056" lon="4.49361">
        <ele>465</ele>
        <time>2020-05-21T08:49:30+02:00</time>
      </trkpt>
      <trkpt lat="46.10025" lon="4.4934">
        <ele>465</ele>
        <time>2020-05-21T08:50:05+02:00</time>
      </trkpt>
      <trkpt lat="46.09998" lon="4.49344">
        <ele>464</ele>
        <time>2020-05-21T08:50:41+02:00</time>
      </trkpt>
      <trkpt lat="46.09972" lon="4.49353">
        <ele>464</ele>
        <time>2020-05-21T08:51:17+02:00</time>
      </trkpt>
      <trkpt lat="46.09948" lon="4.49341">
        <ele>465</ele>
        <time>2020-05-21T08:51:50+02:00</time>
      </trkpt>
      <trkpt lat="46.09932" lon="4.49309">
        <ele>469</ele>
        <time>2020-05-21T08:52:27+02:00</time>
      </trkpt>
      <trkpt lat="46.09906" lon="4.49299">
        <ele>470</ele>
        <time>2020-05-21T08:53:03+02:00</time>
      </trkpt>
      <trkpt lat="46.0988" lon="4.49289">
        <ele>470</ele>
        <time>2020-05-21T08:53:39+02:00</time>
      </trkpt>
      <trkpt lat="46.09856" lon="4.49272">
        <ele>472</ele>
        <time>2020-05-21T08:54:14+02:00</time>
      </trkpt>
      <trkpt lat="46.09831" lon="4.49252">
        <ele>474</ele>
        <time>2020-05-21T08:54:53+02:00</time>
      </trkpt>
      <trkpt lat="46.09807" lon="4.4927">
        <ele>473</ele>
        <time>2020-05-21T08:55:29+02:00</time>
      </trkpt>
      <trkpt lat="46.09785" lon="4.49294">
        <ele>471</ele>
        <time>2020-05-21T08:56:06+02:00</time>
      </trkpt>
      <trkpt lat="46.09763" lon="4.49318">
        <ele>470</ele>
        <time>2020-05-21T08:56:42+02:00</time>
      </trkpt>
      <trkpt lat="46.09738" lon="4.49336">
        <ele>469</ele>
        <time>2020-05-21T08:57:20+02:00</time>
      </trkpt>
      <trkpt lat="46.09709" lon="4.49345">
        <ele>470</ele>
        <time>2020-05-21T08:57:59+02:00</time>
      </trkpt>
      <trkpt lat="46.0968" lon="4.49354">
        <ele>471</ele>
        <time>2020-05-21T08:58:39+02:00</time>
      </trkpt>
      <trkpt lat="46.09653" lon="4.49364">
        <ele>471</ele>
        <time>2020-05-21T08:59:16+02:00</time>
      </trkpt>
      <trkpt lat="46.09598" lon="4.49381">
        <ele>473</ele>
        <time>2020-05-21T09:00:31+02:00</time>
      </trkpt>
      <trkpt lat="46.09571" lon="4.49388">
        <ele>474</ele>
        <time>2020-05-21T09:01:08+02:00</time>
      </trkpt>
      <trkpt lat="46.09545" lon="4.494">
        <ele>474</ele>
        <time>2020-05-21T09:01:44+02:00</time>
      </trkpt>
      <trkpt lat="46.09519" lon="4.49413">
        <ele>473</ele>
        <time>2020-05-21T09:02:21+02:00</time>
      </trkpt>
      <trkpt lat="46.09492" lon="4.4942">
        <ele>474</ele>
        <time>2020-05-21T09:02:57+02:00</time>
      </trkpt>
      <trkpt lat="46.09466" lon="4.4943">
        <ele>474</ele>
        <time>2020-05-21T09:03:33+02:00</time>
      </trkpt>
      <trkpt lat="46.09439" lon="4.49445">
        <ele>474</ele>
        <time>2020-05-21T09:04:12+02:00</time>
      </trkpt>
      <trkpt lat="46.09412" lon="4.49455">
        <ele>475</ele>
        <time>2020-05-21T09:04:49+02:00</time>
      </trkpt>
      <trkpt lat="46.09385" lon="4.49461">
        <ele>475</ele>
        <time>2020-05-21T09:05:26+02:00</time>
      </trkpt>
      <trkpt lat="46.09358" lon="4.49461">
        <ele>475</ele>
        <time>2020-05-21T09:06:02+02:00</time>
      </trkpt>
      <trkpt lat="46.0933" lon="4.49464">
        <ele>474</ele>
        <time>2020-05-21T09:06:39+02:00</time>
      </trkpt>
      <trkpt lat="46.09303" lon="4.49468">
        <ele>473</ele>
        <time>2020-05-21T09:07:15+02:00</time>
      </trkpt>
      <trkpt lat="46.09274" lon="4.4947">
        <ele>471</ele>
        <time>2020-05-21T09:07:54+02:00</time>
      </trkpt>
      <trkpt lat="46.09245" lon="4.49466">
        <ele>471</ele>
        <time>2020-05-21T09:08:33+02:00</time>
      </trkpt>
      <trkpt lat="46.09221" lon="4.4945">
        <ele>474</ele>
        <time>2020-05-21T09:09:08+02:00</time>
      </trkpt>
      <trkpt lat="46.09197" lon="4.49431">
        <ele>476</ele>
        <time>2020-05-21T09:09:45+02:00</time>
      </trkpt>
      <trkpt lat="46.09173" lon="4.49449">
        <ele>473</ele>
        <time>2020-05-21T09:10:21+02:00</time>
      </trkpt>
      <trkpt lat="46.09153" lon="4.49481">
        <ele>469</ele>
        <time>2020-05-21T09:11:01+02:00</time>
      </trkpt>
      <trkpt lat="46.09133" lon="4.49509">
        <ele>468</ele>
        <time>2020-05-21T09:11:38+02:00</time>
      </trkpt>
      <trkpt lat="46.09112" lon="4.49536">
        <ele>469</ele>
        <time>2020-05-21T09:12:15+02:00</time>
      </trkpt>
      <trkpt lat="46.09089" lon="4.49565">
        <ele>470</ele>
        <time>2020-05-21T09:12:56+02:00</time>
      </trkpt>
      <trkpt lat="46.09068" lon="4.49597">
        <ele>468</ele>
        <time>2020-05-21T09:13:37+02:00</time>
      </trkpt>
      <trkpt lat="46.09048" lon="4.49626">
        <ele>465</ele>
        <time>2020-05-21T09:14:15+02:00</time>
      </trkpt>
      <trkpt lat="46.09025" lon="4.49653">
        <ele>462</ele>
        <time>2020-05-21T09:14:54+02:00</time>
      </trkpt>
      <trkpt lat="46.09" lon="4.49666">
        <ele>461</ele>
        <time>2020-05-21T09:15:30+02:00</time>
      </trkpt>
      <trkpt lat="46.08973" lon="4.49665">
        <ele>460</ele>
        <time>2020-05-21T09:16:06+02:00</time>
      </trkpt>
      <trkpt lat="46.08944" lon="4.49656">
        <ele>459</ele>
        <time>2020-05-21T09:16:46+02:00</time>
      </trkpt>
      <trkpt lat="46.08917" lon="4.49667">
        <ele>456</ele>
        <time>2020-05-21T09:17:23+02:00</time>
      </trkpt>
      <trkpt lat="46.0889" lon="4.49685">
        <ele>458</ele>
        <time>2020-05-21T09:18:03+02:00</time>
      </trkpt>
      <trkpt lat="46.08865" lon="4.49708">
        <ele>459</ele>
        <time>2020-05-21T09:18:42+02:00</time>
      </trkpt>
      <trkpt lat="46.0884" lon="4.49729">
        <ele>460</ele>
        <time>2020-05-21T09:19:21+02:00</time>
      </trkpt>
      <trkpt lat="46.08819" lon="4.49756">
        <ele>459</ele>
        <time>2020-05-21T09:19:58+02:00</time>
      </trkpt>
      <trkpt lat="46.08796" lon="4.49782">
        <ele>457</ele>
        <time>2020-05-21T09:20:37+02:00</time>
      </trkpt>
      <trkpt lat="46.08767" lon="4.49798">
        <ele>458</ele>
        <time>2020-05-21T09:21:19+02:00</time>
      </trkpt>
      <trkpt lat="46.08736" lon="4.49791">
        <ele>461</ele>
        <time>2020-05-21T09:22:01+02:00</time>
      </trkpt>
      <trkpt lat="46.08708" lon="4.49776">
        <ele>465</ele>
        <time>2020-05-21T09:22:41+02:00</time>
      </trkpt>
      <trkpt lat="46.08679" lon="4.49772">
        <ele>466</ele>
        <time>2020-05-21T09:23:19+02:00</time>
      </trkpt>
      <trkpt lat="46.0862" lon="4.49789">
        <ele>458</ele>
        <time>2020-05-21T09:24:40+02:00</time>
      </trkpt>
      <trkpt lat="46.08593" lon="4.49799">
        <ele>455</ele>
        <time>2020-05-21T09:25:17+02:00</time>
      </trkpt>
      <trkpt lat="46.08565" lon="4.49801">
        <ele>453</ele>
        <time>2020-05-21T09:25:54+02:00</time>
      </trkpt>
      <trkpt lat="46.08538" lon="4.49797">
        <ele>450</ele>
        <time>2020-05-21T09:26:31+02:00</time>
      </trkpt>
      <trkpt lat="46.08519" lon="4.49815">
        <ele>447</ele>
        <time>2020-05-21T09:27:01+02:00</time>
      </trkpt>
      <trkpt lat="46.08526" lon="4.49766">
        <ele>451</ele>
        <time>2020-08-10T15:38:35+02:00</time>
      </trkpt>
      <trkpt lat="46.08547" lon="4.49749">
        <ele>455</ele>
        <time>2020-08-10T15:38:40+02:00</time>
      </trkpt>
      <trkpt lat="46.08571" lon="4.4973">
        <ele>459</ele>
        <time>2020-08-10T15:38:45+02:00</time>
      </trkpt>
      <trkpt lat="46.08592" lon="4.4971">
        <ele>464</ele>
        <time>2020-08-10T15:38:50+02:00</time>
      </trkpt>
      <trkpt lat="46.08623" lon="4.49691">
        <ele>472</ele>
        <time>2020-08-10T15:38:55+02:00</time>
      </trkpt>
      <trkpt lat="46.0866" lon="4.497">
        <ele>479</ele>
        <time>2020-05-21T10:00:44+02:00</time>
      </trkpt>
      <trkpt lat="46.0869" lon="4.49683">
        <ele>485</ele>
        <time>2020-05-21T10:01:24+02:00</time>
      </trkpt>
      <trkpt lat="46.08702" lon="4.49648">
        <ele>493</ele>
        <time>2020-08-10T15:39:10+02:00</time>
      </trkpt>
      <trkpt lat="46.08702" lon="4.49607">
        <ele>500</ele>
        <time>2020-08-10T15:39:15+02:00</time>
      </trkpt>
      <trkpt lat="46.08709" lon="4.49565">
        <ele>509</ele>
        <time>2020-08-10T15:39:20+02:00</time>
      </trkpt>
      <trkpt lat="46.08703" lon="4.49519">
        <ele>518</ele>
        <time>2020-08-10T15:39:25+02:00</time>
      </trkpt>
      <trkpt lat="46.08712" lon="4.49483">
        <ele>527</ele>
        <time>2020-08-10T15:39:30+02:00</time>
      </trkpt>
      <trkpt lat="46.08714" lon="4.49449">
        <ele>535</ele>
        <time>2020-08-10T15:39:35+02:00</time>
      </trkpt>
      <trkpt lat="46.08718" lon="4.49408">
        <ele>543</ele>
        <time>2020-08-10T15:39:40+02:00</time>
      </trkpt>
      <trkpt lat="46.08729" lon="4.49371">
        <ele>551</ele>
        <time>2020-08-10T15:39:45+02:00</time>
      </trkpt>
      <trkpt lat="46.08745" lon="4.49326">
        <ele>560</ele>
        <time>2020-05-21T10:02:03+02:00</time>
      </trkpt>
      <trkpt lat="46.08745" lon="4.49286">
        <ele>570</ele>
        <time>2020-08-10T15:39:55+02:00</time>
      </trkpt>
      <trkpt lat="46.08741" lon="4.49253">
        <ele>577</ele>
        <time>2020-08-10T15:40:00+02:00</time>
      </trkpt>
      <trkpt lat="46.08741" lon="4.49215">
        <ele>579</ele>
        <time>2020-08-10T15:40:05+02:00</time>
      </trkpt>
      <trkpt lat="46.08736" lon="4.49174">
        <ele>580</ele>
        <time>2020-08-10T15:40:10+02:00</time>
      </trkpt>
      <trkpt lat="46.0873" lon="4.49133">
        <ele>584</ele>
        <time>2020-08-10T15:40:15+02:00</time>
      </trkpt>
      <trkpt lat="46.08732" lon="4.49101">
        <ele>587</ele>
        <time>2020-05-21T10:02:41+02:00</time>
      </trkpt>
      <trkpt lat="46.08747" lon="4.49067">
        <ele>588</ele>
        <time>2020-05-21T10:03:58+02:00</time>
      </trkpt>
      <trkpt lat="46.08755" lon="4.49037">
        <ele>587</ele>
        <time>2020-05-21T10:04:36+02:00</time>
      </trkpt>
      <trkpt lat="46.08774" lon="4.48991">
        <ele>584</ele>
        <time>2020-05-21T10:05:11+02:00</time>
      </trkpt>
      <trkpt lat="46.08798" lon="4.48971">
        <ele>580</ele>
        <time>2020-05-21T10:05:48+02:00</time>
      </trkpt>
      <trkpt lat="46.08822" lon="4.48957">
        <ele>577</ele>
        <time>2020-08-10T15:40:45+02:00</time>
      </trkpt>
      <trkpt lat="46.08848" lon="4.48934">
        <ele>577</ele>
        <time>2020-08-10T15:40:50+02:00</time>
      </trkpt>
      <trkpt lat="46.08873" lon="4.48919">
        <ele>577</ele>
        <time>2020-08-10T15:40:55+02:00</time>
      </trkpt>
      <trkpt lat="46.08895" lon="4.48892">
        <ele>576</ele>
        <time>2020-05-21T10:08:17+02:00</time>
      </trkpt>
      <trkpt lat="46.0892" lon="4.48874">
        <ele>577</ele>
        <time>2020-05-21T10:08:54+02:00</time>
      </trkpt>
      <trkpt lat="46.08943" lon="4.48852">
        <ele>578</ele>
        <time>2020-05-21T10:09:31+02:00</time>
      </trkpt>
      <trkpt lat="46.08963" lon="4.48826">
        <ele>580</ele>
        <time>2020-05-21T10:10:07+02:00</time>
      </trkpt>
      <trkpt lat="46.08983" lon="4.488">
        <ele>579</ele>
        <time>2020-05-21T10:10:43+02:00</time>
      </trkpt>
      <trkpt lat="46.09006" lon="4.48778">
        <ele>579</ele>
        <time>2020-05-21T10:11:19+02:00</time>
      </trkpt>
      <trkpt lat="46.09033" lon="4.48767">
        <ele>578</ele>
        <time>2020-05-21T10:11:57+02:00</time>
      </trkpt>
      <trkpt lat="46.0906" lon="4.48766">
        <ele>578</ele>
        <time>2020-05-21T10:12:33+02:00</time>
      </trkpt>
      <trkpt lat="46.09087" lon="4.48771">
        <ele>578</ele>
        <time>2020-05-21T10:13:09+02:00</time>
      </trkpt>
      <trkpt lat="46.09114" lon="4.48778">
        <ele>579</ele>
        <time>2020-05-21T10:13:46+02:00</time>
      </trkpt>
      <trkpt lat="46.09142" lon="4.48785">
        <ele>578</ele>
        <time>2020-05-21T10:14:24+02:00</time>
      </trkpt>
      <trkpt lat="46.09169" lon="4.48788">
        <ele>578</ele>
        <time>2020-05-21T10:15:00+02:00</time>
      </trkpt>
      <trkpt lat="46.09195" lon="4.48784">
        <ele>578</ele>
        <time>2020-05-21T10:15:35+02:00</time>
      </trkpt>
      <trkpt lat="46.09218" lon="4.48779">
        <ele>577</ele>
        <time>2020-08-10T15:42:05+02:00</time>
      </trkpt>
      <trkpt lat="46.09247" lon="4.48773">
        <ele>577</ele>
        <time>2020-08-10T15:42:10+02:00</time>
      </trkpt>
      <trkpt lat="46.09276" lon="4.48758">
        <ele>577</ele>
        <time>2020-05-21T10:17:26+02:00</time>
      </trkpt>
      <trkpt lat="46.09302" lon="4.48746">
        <ele>578</ele>
        <time>2020-05-21T10:18:02+02:00</time>
      </trkpt>
      <trkpt lat="46.09326" lon="4.48729">
        <ele>577</ele>
        <time>2020-05-21T10:18:38+02:00</time>
      </trkpt>
      <trkpt lat="46.0935" lon="4.4871">
        <ele>577</ele>
        <time>2020-05-21T10:19:14+02:00</time>
      </trkpt>
      <trkpt lat="46.09374" lon="4.48688">
        <ele>578</ele>
        <time>2020-05-21T10:19:52+02:00</time>
      </trkpt>
      <trkpt lat="46.09399" lon="4.48668">
        <ele>580</ele>
        <time>2020-05-21T10:20:30+02:00</time>
      </trkpt>
      <trkpt lat="46.09422" lon="4.48647">
        <ele>580</ele>
        <time>2020-05-21T10:21:07+02:00</time>
      </trkpt>
      <trkpt lat="46.09446" lon="4.48626">
        <ele>577</ele>
        <time>2020-05-21T10:21:44+02:00</time>
      </trkpt>
      <trkpt lat="46.09468" lon="4.48602">
        <ele>575</ele>
        <time>2020-05-21T10:22:21+02:00</time>
      </trkpt>
      <trkpt lat="46.09511" lon="4.48553">
        <ele>574</ele>
        <time>2020-05-21T10:23:34+02:00</time>
      </trkpt>
      <trkpt lat="46.09532" lon="4.48528">
        <ele>573</ele>
        <time>2020-05-21T10:24:10+02:00</time>
      </trkpt>
      <trkpt lat="46.09554" lon="4.48505">
        <ele>573</ele>
        <time>2020-05-21T10:24:47+02:00</time>
      </trkpt>
      <trkpt lat="46.09577" lon="4.4848">
        <ele>572</ele>
        <time>2020-05-21T10:25:25+02:00</time>
      </trkpt>
      <trkpt lat="46.09603" lon="4.48469">
        <ele>571</ele>
        <time>2020-05-21T10:26:01+02:00</time>
      </trkpt>
      <trkpt lat="46.0963" lon="4.4847">
        <ele>571</ele>
        <time>2020-05-21T10:26:37+02:00</time>
      </trkpt>
      <trkpt lat="46.09657" lon="4.48465">
        <ele>570</ele>
        <time>2020-05-21T10:27:14+02:00</time>
      </trkpt>
      <trkpt lat="46.09684" lon="4.48461">
        <ele>572</ele>
        <time>2020-05-21T10:27:50+02:00</time>
      </trkpt>
      <trkpt lat="46.09711" lon="4.48456">
        <ele>574</ele>
        <time>2020-05-21T10:28:26+02:00</time>
      </trkpt>
      <trkpt lat="46.09738" lon="4.48446">
        <ele>577</ele>
        <time>2020-05-21T10:29:03+02:00</time>
      </trkpt>
      <trkpt lat="46.09763" lon="4.48431">
        <ele>579</ele>
        <time>2020-05-21T10:29:40+02:00</time>
      </trkpt>
      <trkpt lat="46.09784" lon="4.48413">
        <ele>580</ele>
        <time>2020-05-21T10:30:12+02:00</time>
      </trkpt>
      <trkpt lat="46.09806" lon="4.4839">
        <ele>580</ele>
        <time>2020-05-21T10:30:48+02:00</time>
      </trkpt>
      <trkpt lat="46.09829" lon="4.48369">
        <ele>581</ele>
        <time>2020-05-21T10:31:25+02:00</time>
      </trkpt>
      <trkpt lat="46.09852" lon="4.48348">
        <ele>581</ele>
        <time>2020-05-21T10:32:01+02:00</time>
      </trkpt>
      <trkpt lat="46.09874" lon="4.48325">
        <ele>583</ele>
        <time>2020-05-21T10:32:37+02:00</time>
      </trkpt>
      <trkpt lat="46.09898" lon="4.48305">
        <ele>585</ele>
        <time>2020-05-21T10:33:14+02:00</time>
      </trkpt>
      <trkpt lat="46.09924" lon="4.48288">
        <ele>588</ele>
        <time>2020-05-21T10:33:52+02:00</time>
      </trkpt>
      <trkpt lat="46.0995" lon="4.48273">
        <ele>585</ele>
        <time>2020-05-21T10:34:30+02:00</time>
      </trkpt>
      <trkpt lat="46.09974" lon="4.48256">
        <ele>585</ele>
        <time>2020-05-21T10:35:05+02:00</time>
      </trkpt>
      <trkpt lat="46.10001" lon="4.4824">
        <ele>584</ele>
        <time>2020-05-21T10:35:44+02:00</time>
      </trkpt>
      <trkpt lat="46.10025" lon="4.48221">
        <ele>584</ele>
        <time>2020-05-21T10:36:21+02:00</time>
      </trkpt>
      <trkpt lat="46.10074" lon="4.48186">
        <ele>584</ele>
        <time>2020-05-21T10:37:34+02:00</time>
      </trkpt>
      <trkpt lat="46.101" lon="4.48163">
        <ele>585</ele>
        <time>2020-05-21T10:38:15+02:00</time>
      </trkpt>
      <trkpt lat="46.10128" lon="4.48146">
        <ele>584</ele>
        <time>2020-05-21T10:38:55+02:00</time>
      </trkpt>
      <trkpt lat="46.10156" lon="4.48131">
        <ele>583</ele>
        <time>2020-05-21T10:39:35+02:00</time>
      </trkpt>
      <trkpt lat="46.10184" lon="4.48119">
        <ele>582</ele>
        <time>2020-05-21T10:40:14+02:00</time>
      </trkpt>
      <trkpt lat="46.1021" lon="4.48101">
        <ele>580</ele>
        <time>2020-05-21T10:40:52+02:00</time>
      </trkpt>
      <trkpt lat="46.10236" lon="4.48077">
        <ele>577</ele>
        <time>2020-05-21T10:41:34+02:00</time>
      </trkpt>
      <trkpt lat="46.10262" lon="4.48063">
        <ele>575</ele>
        <time>2020-05-21T10:42:11+02:00</time>
      </trkpt>
      <trkpt lat="46.1029" lon="4.48063">
        <ele>572</ele>
        <time>2020-05-21T10:42:48+02:00</time>
      </trkpt>
      <trkpt lat="46.10318" lon="4.48063">
        <ele>569</ele>
        <time>2020-05-21T10:43:25+02:00</time>
      </trkpt>
      <trkpt lat="46.10345" lon="4.48062">
        <ele>567</ele>
        <time>2020-05-21T10:54:39+02:00</time>
      </trkpt>
      <trkpt lat="46.10372" lon="4.48058">
        <ele>566</ele>
        <time>2020-05-21T10:55:15+02:00</time>
      </trkpt>
      <trkpt lat="46.10399" lon="4.48051">
        <ele>564</ele>
        <time>2020-05-21T10:55:52+02:00</time>
      </trkpt>
      <trkpt lat="46.10425" lon="4.48037">
        <ele>566</ele>
        <time>2020-05-21T10:56:29+02:00</time>
      </trkpt>
      <trkpt lat="46.10451" lon="4.48022">
        <ele>572</ele>
        <time>2020-05-21T10:57:06+02:00</time>
      </trkpt>
      <trkpt lat="46.10465" lon="4.47987">
        <ele>576</ele>
        <time>2020-05-21T10:57:44+02:00</time>
      </trkpt>
      <trkpt lat="46.10473" lon="4.47949">
        <ele>578</ele>
        <time>2020-05-21T10:58:20+02:00</time>
      </trkpt>
      <trkpt lat="46.10483" lon="4.47909">
        <ele>581</ele>
        <time>2020-05-21T10:59:00+02:00</time>
      </trkpt>
      <trkpt lat="46.10495" lon="4.47871">
        <ele>583</ele>
        <time>2020-05-21T10:59:38+02:00</time>
      </trkpt>
      <trkpt lat="46.10511" lon="4.47834">
        <ele>586</ele>
        <time>2020-05-21T11:00:19+02:00</time>
      </trkpt>
      <trkpt lat="46.10525" lon="4.47794">
        <ele>588</ele>
        <time>2020-05-21T11:01:00+02:00</time>
      </trkpt>
      <trkpt lat="46.10541" lon="4.4776">
        <ele>590</ele>
        <time>2020-05-21T11:01:38+02:00</time>
      </trkpt>
      <trkpt lat="46.10556" lon="4.47726">
        <ele>591</ele>
        <time>2020-05-21T11:02:15+02:00</time>
      </trkpt>
      <trkpt lat="46.10573" lon="4.47696">
        <ele>593</ele>
        <time>2020-05-21T11:02:51+02:00</time>
      </trkpt>
      <trkpt lat="46.10592" lon="4.47666">
        <ele>595</ele>
        <time>2020-05-21T11:03:29+02:00</time>
      </trkpt>
      <trkpt lat="46.10613" lon="4.47641">
        <ele>596</ele>
        <time>2020-05-21T11:04:05+02:00</time>
      </trkpt>
      <trkpt lat="46.1063" lon="4.47609">
        <ele>596</ele>
        <time>2020-05-21T11:04:42+02:00</time>
      </trkpt>
      <trkpt lat="46.10645" lon="4.47574">
        <ele>596</ele>
        <time>2020-05-21T11:05:21+02:00</time>
      </trkpt>
      <trkpt lat="46.10658" lon="4.47536">
        <ele>595</ele>
        <time>2020-05-21T11:06:00+02:00</time>
      </trkpt>
      <trkpt lat="46.10665" lon="4.47495">
        <ele>593</ele>
        <time>2020-05-21T11:06:39+02:00</time>
      </trkpt>
      <trkpt lat="46.1067" lon="4.47456">
        <ele>593</ele>
        <time>2020-05-21T11:07:16+02:00</time>
      </trkpt>
      <trkpt lat="46.10664" lon="4.47419">
        <ele>591</ele>
        <time>2020-05-21T11:07:51+02:00</time>
      </trkpt>
      <trkpt lat="46.10654" lon="4.47382">
        <ele>587</ele>
        <time>2020-05-21T11:08:27+02:00</time>
      </trkpt>
      <trkpt lat="46.10675" lon="4.47357">
        <ele>588</ele>
        <time>2020-05-21T11:09:04+02:00</time>
      </trkpt>
      <trkpt lat="46.10704" lon="4.4735">
        <ele>587</ele>
        <time>2020-05-21T11:09:43+02:00</time>
      </trkpt>
      <trkpt lat="46.10733" lon="4.47345">
        <ele>585</ele>
        <time>2020-05-21T11:10:22+02:00</time>
      </trkpt>
      <trkpt lat="46.10765" lon="4.47346">
        <ele>585</ele>
        <time>2020-05-21T11:11:05+02:00</time>
      </trkpt>
      <trkpt lat="46.10794" lon="4.47364">
        <ele>591</ele>
        <time>2020-05-21T11:11:47+02:00</time>
      </trkpt>
      <trkpt lat="46.1082" lon="4.47378">
        <ele>596</ele>
        <time>2020-05-21T11:12:24+02:00</time>
      </trkpt>
      <trkpt lat="46.10847" lon="4.47369">
        <ele>596</ele>
        <time>2020-05-21T11:13:01+02:00</time>
      </trkpt>
      <trkpt lat="46.1087" lon="4.47349">
        <ele>593</ele>
        <time>2020-05-21T11:13:37+02:00</time>
      </trkpt>
      <trkpt lat="46.10892" lon="4.47325">
        <ele>589</ele>
        <time>2020-05-21T11:14:13+02:00</time>
      </trkpt>
      <trkpt lat="46.10919" lon="4.47313">
        <ele>590</ele>
        <time>2020-05-21T11:14:51+02:00</time>
      </trkpt>
      <trkpt lat="46.10949" lon="4.47316">
        <ele>593</ele>
        <time>2020-05-21T11:15:31+02:00</time>
      </trkpt>
      <trkpt lat="46.10974" lon="4.47307">
        <ele>592</ele>
        <time>2020-05-21T11:16:06+02:00</time>
      </trkpt>
      <trkpt lat="46.10998" lon="4.47288">
        <ele>589</ele>
        <time>2020-08-10T15:48:35+02:00</time>
      </trkpt>
      <trkpt lat="46.11016" lon="4.4726">
        <ele>586</ele>
        <time>2020-08-10T15:48:40+02:00</time>
      </trkpt>
      <trkpt lat="46.11041" lon="4.47238">
        <ele>588</ele>
        <time>2020-05-21T11:17:56+02:00</time>
      </trkpt>
      <trkpt lat="46.11062" lon="4.47214">
        <ele>588</ele>
        <time>2020-05-21T11:18:31+02:00</time>
      </trkpt>
      <trkpt lat="46.11085" lon="4.47191">
        <ele>588</ele>
        <time>2020-05-21T11:19:09+02:00</time>
      </trkpt>
      <trkpt lat="46.11108" lon="4.47169">
        <ele>590</ele>
        <time>2020-05-21T11:19:45+02:00</time>
      </trkpt>
      <trkpt lat="46.1113" lon="4.47145">
        <ele>589</ele>
        <time>2020-05-21T11:20:22+02:00</time>
      </trkpt>
      <trkpt lat="46.11153" lon="4.47121">
        <ele>588</ele>
        <time>2020-05-21T11:21:00+02:00</time>
      </trkpt>
      <trkpt lat="46.11177" lon="4.47101">
        <ele>587</ele>
        <time>2020-05-21T11:21:37+02:00</time>
      </trkpt>
      <trkpt lat="46.11205" lon="4.47085">
        <ele>588</ele>
        <time>2020-05-21T11:22:17+02:00</time>
      </trkpt>
      <trkpt lat="46.11232" lon="4.47069">
        <ele>591</ele>
        <time>2020-05-21T11:22:56+02:00</time>
      </trkpt>
      <trkpt lat="46.1126" lon="4.47058">
        <ele>591</ele>
        <time>2020-05-21T11:23:35+02:00</time>
      </trkpt>
      <trkpt lat="46.11289" lon="4.47057">
        <ele>589</ele>
        <time>2020-05-21T11:24:14+02:00</time>
      </trkpt>
      <trkpt lat="46.11318" lon="4.47063">
        <ele>588</ele>
        <time>2020-05-21T11:24:53+02:00</time>
      </trkpt>
      <trkpt lat="46.11342" lon="4.47084">
        <ele>585</ele>
        <time>2020-05-21T11:25:30+02:00</time>
      </trkpt>
      <trkpt lat="46.11359" lon="4.47116">
        <ele>582</ele>
        <time>2020-05-21T11:26:08+02:00</time>
      </trkpt>
      <trkpt lat="46.11374" lon="4.47149">
        <ele>581</ele>
        <time>2020-05-21T11:26:44+02:00</time>
      </trkpt>
      <trkpt lat="46.11389" lon="4.47183">
        <ele>580</ele>
        <time>2020-05-21T11:27:21+02:00</time>
      </trkpt>
      <trkpt lat="46.11401" lon="4.47219">
        <ele>581</ele>
        <time>2020-05-21T11:27:58+02:00</time>
      </trkpt>
      <trkpt lat="46.11412" lon="4.47257">
        <ele>582</ele>
        <time>2020-05-21T11:28:36+02:00</time>
      </trkpt>
      <trkpt lat="46.11426" lon="4.47291">
        <ele>584</ele>
        <time>2020-05-21T11:29:13+02:00</time>
      </trkpt>
      <trkpt lat="46.11445" lon="4.47321">
        <ele>587</ele>
        <time>2020-05-21T11:29:51+02:00</time>
      </trkpt>
      <trkpt lat="46.11471" lon="4.47336">
        <ele>589</ele>
        <time>2020-05-21T11:30:28+02:00</time>
      </trkpt>
      <trkpt lat="46.11498" lon="4.47335">
        <ele>588</ele>
        <time>2020-05-21T11:31:04+02:00</time>
      </trkpt>
      <trkpt lat="46.11525" lon="4.47325">
        <ele>592</ele>
        <time>2020-05-21T11:31:41+02:00</time>
      </trkpt>
      <trkpt lat="46.11546" lon="4.47293">
        <ele>592</ele>
        <time>2020-05-21T11:32:22+02:00</time>
      </trkpt>
      <trkpt lat="46.1156" lon="4.47255">
        <ele>589</ele>
        <time>2020-05-21T11:33:02+02:00</time>
      </trkpt>
      <trkpt lat="46.11577" lon="4.4722">
        <ele>588</ele>
        <time>2020-05-21T11:33:41+02:00</time>
      </trkpt>
      <trkpt lat="46.1159" lon="4.47179">
        <ele>585</ele>
        <time>2020-05-21T11:34:23+02:00</time>
      </trkpt>
      <trkpt lat="46.11604" lon="4.47141">
        <ele>582</ele>
        <time>2020-05-21T11:35:03+02:00</time>
      </trkpt>
      <trkpt lat="46.11622" lon="4.47107">
        <ele>580</ele>
        <time>2020-05-21T11:35:42+02:00</time>
      </trkpt>
      <trkpt lat="46.11647" lon="4.47075">
        <ele>578</ele>
        <time>2020-05-21T11:36:27+02:00</time>
      </trkpt>
      <trkpt lat="46.11675" lon="4.47063">
        <ele>579</ele>
        <time>2020-05-21T11:37:06+02:00</time>
      </trkpt>
      <trkpt lat="46.11709" lon="4.47052">
        <ele>577</ele>
        <time>2020-08-10T15:51:20+02:00</time>
      </trkpt>
      <trkpt lat="46.11736" lon="4.47048">
        <ele>577</ele>
        <time>2020-05-21T11:38:29+02:00</time>
      </trkpt>
      <trkpt lat="46.11766" lon="4.47046">
        <ele>579</ele>
        <time>2020-05-21T11:39:09+02:00</time>
      </trkpt>
      <trkpt lat="46.11796" lon="4.47051">
        <ele>583</ele>
        <time>2020-05-21T11:39:49+02:00</time>
      </trkpt>
      <trkpt lat="46.11829" lon="4.47061">
        <ele>588</ele>
        <time>2020-05-21T11:40:34+02:00</time>
      </trkpt>
      <trkpt lat="46.11865" lon="4.47067">
        <ele>592</ele>
        <time>2020-05-21T11:41:22+02:00</time>
      </trkpt>
      <trkpt lat="46.11894" lon="4.47078">
        <ele>596</ele>
        <time>2020-05-21T11:42:02+02:00</time>
      </trkpt>
      <trkpt lat="46.11923" lon="4.4708">
        <ele>597</ele>
        <time>2020-05-21T11:42:41+02:00</time>
      </trkpt>
      <trkpt lat="46.11951" lon="4.47086">
        <ele>597</ele>
        <time>2020-05-21T11:43:19+02:00</time>
      </trkpt>
      <trkpt lat="46.11979" lon="4.47092">
        <ele>596</ele>
        <time>2020-05-21T11:43:57+02:00</time>
      </trkpt>
      <trkpt lat="46.12005" lon="4.47106">
        <ele>594</ele>
        <time>2020-05-21T11:44:34+02:00</time>
      </trkpt>
      <trkpt lat="46.12022" lon="4.47141">
        <ele>590</ele>
        <time>2020-05-21T11:45:13+02:00</time>
      </trkpt>
      <trkpt lat="46.1203" lon="4.47221">
        <ele>590</ele>
        <time>2020-05-21T11:46:28+02:00</time>
      </trkpt>
      <trkpt lat="46.12033" lon="4.47261">
        <ele>588</ele>
        <time>2020-05-21T11:47:05+02:00</time>
      </trkpt>
      <trkpt lat="46.12028" lon="4.47303">
        <ele>588</ele>
        <time>2020-05-21T11:47:45+02:00</time>
      </trkpt>
      <trkpt lat="46.1202" lon="4.47343">
        <ele>590</ele>
        <time>2020-05-21T11:48:23+02:00</time>
      </trkpt>
      <trkpt lat="46.12006" lon="4.47422">
        <ele>592</ele>
        <time>2020-05-21T11:49:38+02:00</time>
      </trkpt>
      <trkpt lat="46.12" lon="4.47462">
        <ele>591</ele>
        <time>2020-05-21T11:50:16+02:00</time>
      </trkpt>
      <trkpt lat="46.11995" lon="4.47504">
        <ele>590</ele>
        <time>2020-05-21T11:50:56+02:00</time>
      </trkpt>
      <trkpt lat="46.11991" lon="4.47548">
        <ele>590</ele>
        <time>2020-05-21T11:51:37+02:00</time>
      </trkpt>
      <trkpt lat="46.11988" lon="4.4763">
        <ele>587</ele>
        <time>2020-05-21T11:52:53+02:00</time>
      </trkpt>
      <trkpt lat="46.11988" lon="4.47672">
        <ele>586</ele>
        <time>2020-05-21T11:53:32+02:00</time>
      </trkpt>
      <trkpt lat="46.11982" lon="4.47708">
        <ele>590</ele>
        <time>2020-05-21T11:54:06+02:00</time>
      </trkpt>
      <trkpt lat="46.11971" lon="4.47744">
        <ele>592</ele>
        <time>2020-05-21T11:54:42+02:00</time>
      </trkpt>
      <trkpt lat="46.11971" lon="4.47774">
        <ele>593</ele>
        <time>2020-05-21T11:55:10+02:00</time>
      </trkpt>
      <trkpt lat="46.11968" lon="4.47809">
        <ele>593</ele>
        <time>2020-05-21T11:55:43+02:00</time>
      </trkpt>
      <trkpt lat="46.1197" lon="4.47848">
        <ele>592</ele>
        <time>2020-05-21T11:56:19+02:00</time>
      </trkpt>
      <trkpt lat="46.11975" lon="4.47888">
        <ele>590</ele>
        <time>2020-05-21T11:56:56+02:00</time>
      </trkpt>
      <trkpt lat="46.11987" lon="4.47923">
        <ele>589</ele>
        <time>2020-05-21T11:57:33+02:00</time>
      </trkpt>
      <trkpt lat="46.12007" lon="4.47949">
        <ele>589</ele>
        <time>2020-05-21T11:58:08+02:00</time>
      </trkpt>
      <trkpt lat="46.12027" lon="4.47976">
        <ele>589</ele>
        <time>2020-05-21T11:58:45+02:00</time>
      </trkpt>
      <trkpt lat="46.12045" lon="4.48005">
        <ele>589</ele>
        <time>2020-05-21T11:59:21+02:00</time>
      </trkpt>
      <trkpt lat="46.12058" lon="4.48039">
        <ele>588</ele>
        <time>2020-05-21T11:59:57+02:00</time>
      </trkpt>
      <trkpt lat="46.12069" lon="4.48077">
        <ele>588</ele>
        <time>2020-05-21T12:00:35+02:00</time>
      </trkpt>
      <trkpt lat="46.12073" lon="4.48116">
        <ele>587</ele>
        <time>2020-05-21T12:01:11+02:00</time>
      </trkpt>
      <trkpt lat="46.12077" lon="4.48155">
        <ele>587</ele>
        <time>2020-05-21T12:01:48+02:00</time>
      </trkpt>
      <trkpt lat="46.12081" lon="4.48195">
        <ele>587</ele>
        <time>2020-05-21T12:02:25+02:00</time>
      </trkpt>
      <trkpt lat="46.12083" lon="4.48234">
        <ele>588</ele>
        <time>2020-05-21T12:03:01+02:00</time>
      </trkpt>
      <trkpt lat="46.12078" lon="4.48273">
        <ele>587</ele>
        <time>2020-05-21T12:03:38+02:00</time>
      </trkpt>
      <trkpt lat="46.12067" lon="4.48309">
        <ele>586</ele>
        <time>2020-05-21T12:04:15+02:00</time>
      </trkpt>
      <trkpt lat="46.1206" lon="4.48346">
        <ele>586</ele>
        <time>2020-05-21T12:04:50+02:00</time>
      </trkpt>
      <trkpt lat="46.1206" lon="4.48377">
        <ele>585</ele>
        <time>2020-05-21T12:05:19+02:00</time>
      </trkpt>
      <trkpt lat="46.12059" lon="4.48376">
        <ele>585</ele>
        <time>2020-05-21T12:05:20+02:00</time>
      </trkpt>
      <trkpt lat="46.1204" lon="4.48395">
        <ele>582</ele>
        <time>2020-05-21T12:05:51+02:00</time>
      </trkpt>
      <trkpt lat="46.12038" lon="4.48437">
        <ele>580</ele>
        <time>2020-05-21T12:06:30+02:00</time>
      </trkpt>
      <trkpt lat="46.12017" lon="4.48456">
        <ele>577</ele>
        <time>2020-05-21T12:07:03+02:00</time>
      </trkpt>
      <trkpt lat="46.11989" lon="4.48453">
        <ele>576</ele>
        <time>2020-05-21T12:07:41+02:00</time>
      </trkpt>
      <trkpt lat="46.11964" lon="4.48436">
        <ele>575</ele>
        <time>2020-05-21T12:08:18+02:00</time>
      </trkpt>
      <trkpt lat="46.11951" lon="4.484">
        <ele>574</ele>
        <time>2020-05-21T12:08:55+02:00</time>
      </trkpt>
      <trkpt lat="46.11932" lon="4.48399">
        <ele>573</ele>
        <time>2020-05-21T12:09:20+02:00</time>
      </trkpt>
      <trkpt lat="46.11906" lon="4.48414">
        <ele>572</ele>
        <time>2020-05-21T12:09:58+02:00</time>
      </trkpt>
      <trkpt lat="46.11881" lon="4.48429">
        <ele>570</ele>
        <time>2020-05-21T12:10:34+02:00</time>
      </trkpt>
      <trkpt lat="46.11856" lon="4.48447">
        <ele>568</ele>
        <time>2020-05-21T12:11:11+02:00</time>
      </trkpt>
      <trkpt lat="46.11836" lon="4.4847">
        <ele>567</ele>
        <time>2020-05-21T12:11:45+02:00</time>
      </trkpt>
      <trkpt lat="46.11821" lon="4.48502">
        <ele>565</ele>
        <time>2020-05-21T12:12:21+02:00</time>
      </trkpt>
      <trkpt lat="46.11811" lon="4.48538">
        <ele>561</ele>
        <time>2020-05-21T12:12:57+02:00</time>
      </trkpt>
      <trkpt lat="46.11809" lon="4.48577">
        <ele>559</ele>
        <time>2020-05-21T12:13:33+02:00</time>
      </trkpt>
      <trkpt lat="46.11828" lon="4.48606">
        <ele>559</ele>
        <time>2020-05-21T12:14:10+02:00</time>
      </trkpt>
      <trkpt lat="46.1184" lon="4.48643">
        <ele>557</ele>
        <time>2020-05-21T12:14:48+02:00</time>
      </trkpt>
      <trkpt lat="46.1184" lon="4.48683">
        <ele>554</ele>
        <time>2020-05-21T12:15:25+02:00</time>
      </trkpt>
      <trkpt lat="46.11831" lon="4.48721">
        <ele>553</ele>
        <time>2020-05-21T12:16:02+02:00</time>
      </trkpt>
      <trkpt lat="46.11815" lon="4.48754">
        <ele>550</ele>
        <time>2020-05-21T12:16:39+02:00</time>
      </trkpt>
      <trkpt lat="46.11797" lon="4.48786">
        <ele>547</ele>
        <time>2020-05-21T12:17:17+02:00</time>
      </trkpt>
      <trkpt lat="46.11779" lon="4.48817">
        <ele>545</ele>
        <time>2020-05-21T12:17:55+02:00</time>
      </trkpt>
      <trkpt lat="46.11763" lon="4.48849">
        <ele>544</ele>
        <time>2020-05-21T12:18:31+02:00</time>
      </trkpt>
      <trkpt lat="46.11745" lon="4.48878">
        <ele>541</ele>
        <time>2020-05-21T12:19:07+02:00</time>
      </trkpt>
      <trkpt lat="46.11721" lon="4.48894">
        <ele>535</ele>
        <time>2020-05-21T12:19:43+02:00</time>
      </trkpt>
      <trkpt lat="46.11695" lon="4.48905">
        <ele>529</ele>
        <time>2020-05-21T12:20:19+02:00</time>
      </trkpt>
      <trkpt lat="46.11676" lon="4.48933">
        <ele>526</ele>
        <time>2020-05-21T12:20:55+02:00</time>
      </trkpt>
      <trkpt lat="46.11656" lon="4.4896">
        <ele>523</ele>
        <time>2020-05-21T12:21:32+02:00</time>
      </trkpt>
      <trkpt lat="46.11635" lon="4.48985">
        <ele>519</ele>
        <time>2020-05-21T12:22:08+02:00</time>
      </trkpt>
      <trkpt lat="46.11612" lon="4.49003">
        <ele>514</ele>
        <time>2020-05-21T12:22:43+02:00</time>
      </trkpt>
      <trkpt lat="46.11588" lon="4.49021">
        <ele>511</ele>
        <time>2020-05-21T12:23:19+02:00</time>
      </trkpt>
      <trkpt lat="46.11566" lon="4.49045">
        <ele>512</ele>
        <time>2020-05-21T12:23:56+02:00</time>
      </trkpt>
      <trkpt lat="46.11548" lon="4.49073">
        <ele>510</ele>
        <time>2020-05-21T12:24:31+02:00</time>
      </trkpt>
      <trkpt lat="46.11531" lon="4.49103">
        <ele>504</ele>
        <time>2020-05-21T12:25:07+02:00</time>
      </trkpt>
      <trkpt lat="46.11512" lon="4.49129">
        <ele>497</ele>
        <time>2020-05-21T12:25:42+02:00</time>
      </trkpt>
      <trkpt lat="46.11508" lon="4.49161">
        <ele>491</ele>
        <time>2020-05-21T12:26:12+02:00</time>
      </trkpt>
      <trkpt lat="46.1153" lon="4.49179">
        <ele>491</ele>
        <time>2020-05-21T12:26:46+02:00</time>
      </trkpt>
      <trkpt lat="46.11529" lon="4.49217">
        <ele>487</ele>
        <time>2020-05-21T12:27:21+02:00</time>
      </trkpt>
      <trkpt lat="46.1151" lon="4.49246">
        <ele>483</ele>
        <time>2020-05-21T12:27:58+02:00</time>
      </trkpt>
      <trkpt lat="46.11493" lon="4.49277">
        <ele>489</ele>
        <time>2020-05-21T12:28:34+02:00</time>
      </trkpt>
      <trkpt lat="46.11478" lon="4.49306">
        <ele>496</ele>
        <time>2020-05-21T12:29:08+02:00</time>
      </trkpt>
      <trkpt lat="46.11396" lon="4.49305">
        <ele>495</ele>
        <time>2020-05-21T12:30:57+02:00</time>
      </trkpt>
      <trkpt lat="46.11368" lon="4.49303">
        <ele>494</ele>
        <time>2020-05-21T12:31:35+02:00</time>
      </trkpt>
      <trkpt lat="46.11314" lon="4.49314">
        <ele>494</ele>
        <time>2020-05-21T12:32:47+02:00</time>
      </trkpt>
      <trkpt lat="46.11286" lon="4.49322">
        <ele>491</ele>
        <time>2020-05-21T12:33:25+02:00</time>
      </trkpt>
      <trkpt lat="46.1126" lon="4.49332">
        <ele>488</ele>
        <time>2020-05-21T12:34:01+02:00</time>
      </trkpt>
      <trkpt lat="46.11233" lon="4.49345">
        <ele>487</ele>
        <time>2020-05-21T12:34:39+02:00</time>
      </trkpt>
      <trkpt lat="46.11208" lon="4.49359">
        <ele>487</ele>
        <time>2020-05-21T12:35:15+02:00</time>
      </trkpt>
      <trkpt lat="46.11182" lon="4.49372">
        <ele>486</ele>
        <time>2020-05-21T12:35:52+02:00</time>
      </trkpt>
      <trkpt lat="46.11131" lon="4.494">
        <ele>484</ele>
        <time>2020-05-21T12:37:05+02:00</time>
      </trkpt>
      <trkpt lat="46.11105" lon="4.49414">
        <ele>482</ele>
        <time>2020-05-21T12:37:42+02:00</time>
      </trkpt>
      <trkpt lat="46.11079" lon="4.49426">
        <ele>479</ele>
        <time>2020-05-21T12:38:18+02:00</time>
      </trkpt>
      <trkpt lat="46.11053" lon="4.4944">
        <ele>478</ele>
        <time>2020-05-21T12:38:55+02:00</time>
      </trkpt>
      <trkpt lat="46.11027" lon="4.49454">
        <ele>477</ele>
        <time>2020-05-21T12:39:32+02:00</time>
      </trkpt>
      <trkpt lat="46.11" lon="4.49467">
        <ele>474</ele>
        <time>2020-05-21T12:40:10+02:00</time>
      </trkpt>
      <trkpt lat="46.10973" lon="4.49475">
        <ele>473</ele>
        <time>2020-05-21T12:40:47+02:00</time>
      </trkpt>
      <trkpt lat="46.10946" lon="4.49479">
        <ele>472</ele>
        <time>2020-05-21T12:41:23+02:00</time>
      </trkpt>
      <trkpt lat="46.10954" lon="4.49509">
        <ele>476</ele>
        <time>2020-05-21T12:41:53+02:00</time>
      </trkpt>
      <trkpt lat="46.10984" lon="4.49556">
        <ele>484</ele>
        <time>2020-05-21T12:42:52+02:00</time>
      </trkpt>
      <trkpt lat="46.11045" lon="4.49616">
        <ele>498</ele>
        <time>2020-05-21T12:44:31+02:00</time>
      </trkpt>
      <trkpt lat="46.11094" lon="4.49686">
        <ele>508</ele>
        <time>2020-05-21T12:46:03+02:00</time>
      </trkpt>
      <trkpt lat="46.1115" lon="4.49777">
        <ele>516</ele>
        <time>2020-05-21T12:47:55+02:00</time>
      </trkpt>
      <trkpt lat="46.11175" lon="4.49798">
        <ele>517</ele>
        <time>2020-05-21T12:48:34+02:00</time>
      </trkpt>
      <trkpt lat="46.11211" lon="4.49834">
        <ele>522</ele>
        <time>2020-05-21T12:49:32+02:00</time>
      </trkpt>
      <trkpt lat="46.11245" lon="4.49892">
        <ele>522</ele>
        <time>2020-05-21T12:50:43+02:00</time>
      </trkpt>
      <trkpt lat="46.1127" lon="4.49936">
        <ele>524</ele>
        <time>2020-05-21T12:51:35+02:00</time>
      </trkpt>
      <trkpt lat="46.11291" lon="4.49959">
        <ele>528</ele>
        <time>2020-05-21T12:52:10+02:00</time>
      </trkpt>
      <trkpt lat="46.11326" lon="4.49993">
        <ele>529</ele>
        <time>2020-05-21T12:53:07+02:00</time>
      </trkpt>
      <trkpt lat="46.11284" lon="4.50011">
        <ele>537</ele>
        <time>2020-05-21T12:54:05+02:00</time>
      </trkpt>
      <trkpt lat="46.11254" lon="4.50003">
        <ele>537</ele>
        <time>2020-05-21T12:54:46+02:00</time>
      </trkpt>
      <trkpt lat="46.11223" lon="4.49996">
        <ele>541</ele>
        <time>2020-05-21T12:55:28+02:00</time>
      </trkpt>
      <trkpt lat="46.11223" lon="4.49954">
        <ele>530</ele>
        <time>2020-05-21T12:56:07+02:00</time>
      </trkpt>
      <trkpt lat="46.11157" lon="4.49884">
        <ele>524</ele>
        <time>2020-05-21T12:57:56+02:00</time>
      </trkpt>
      <trkpt lat="46.11106" lon="4.49834">
        <ele>528</ele>
        <time>2020-05-21T12:59:18+02:00</time>
      </trkpt>
      <trkpt lat="46.11002" lon="4.49803">
        <ele>545</ele>
        <time>2020-05-21T13:01:40+02:00</time>
      </trkpt>
      <trkpt lat="46.10923" lon="4.49806">
        <ele>549</ele>
        <time>2020-05-21T13:03:25+02:00</time>
      </trkpt>
      <trkpt lat="46.10862" lon="4.49842">
        <ele>548</ele>
        <time>2020-05-21T13:04:53+02:00</time>
      </trkpt>
      <trkpt lat="46.10814" lon="4.49889">
        <ele>543</ele>
        <time>2020-05-21T13:06:11+02:00</time>
      </trkpt>
      <trkpt lat="46.1081" lon="4.49946">
        <ele>549</ele>
        <time>2020-05-21T13:07:04+02:00</time>
      </trkpt>
      <trkpt lat="46.10808" lon="4.50009">
        <ele>555</ele>
        <time>2020-05-21T13:08:02+02:00</time>
      </trkpt>
      <trkpt lat="46.10783" lon="4.50032">
        <ele>551</ele>
        <time>2020-05-21T13:08:42+02:00</time>
      </trkpt>
      <trkpt lat="46.10749" lon="4.50016">
        <ele>540</ele>
        <time>2020-05-21T13:09:29+02:00</time>
      </trkpt>
      <trkpt lat="46.10724" lon="4.49996">
        <ele>535</ele>
        <time>2020-05-21T13:10:08+02:00</time>
      </trkpt>
      <trkpt lat="46.10681" lon="4.50003">
        <ele>529</ele>
        <time>2020-05-21T13:11:05+02:00</time>
      </trkpt>
      <trkpt lat="46.10641" lon="4.5004">
        <ele>526</ele>
        <time>2020-05-21T13:12:09+02:00</time>
      </trkpt>
      <trkpt lat="46.10589" lon="4.50063">
        <ele>520</ele>
        <time>2020-05-21T13:13:21+02:00</time>
      </trkpt>
      <trkpt lat="46.10562" lon="4.50066">
        <ele>516</ele>
        <time>2020-05-21T13:13:57+02:00</time>
      </trkpt>
      <trkpt lat="46.10524" lon="4.49998">
        <ele>509</ele>
        <time>2020-05-21T13:15:18+02:00</time>
      </trkpt>
      <trkpt lat="46.10503" lon="4.49868">
        <ele>505</ele>
        <time>2020-05-21T13:17:22+02:00</time>
      </trkpt>
      <trkpt lat="46.10469" lon="4.49785">
        <ele>499</ele>
        <time>2020-05-21T13:18:51+02:00</time>
      </trkpt>
      <trkpt lat="46.10393" lon="4.49733">
        <ele>499</ele>
        <time>2020-05-21T13:20:43+02:00</time>
      </trkpt>
      <trkpt lat="46.10321" lon="4.49705">
        <ele>494</ele>
        <time>2020-05-21T13:22:23+02:00</time>
      </trkpt>
      <trkpt lat="46.10251" lon="4.49681">
        <ele>484</ele>
        <time>2020-05-21T13:23:59+02:00</time>
      </trkpt>
      <trkpt lat="46.10222" lon="4.49676">
        <ele>479</ele>
        <time>2020-05-21T13:24:38+02:00</time>
      </trkpt>
      <trkpt lat="46.10201" lon="4.49684">
        <ele>476</ele>
        <time>2020-05-21T13:25:07+02:00</time>
      </trkpt>
      <trkpt lat="46.10174" lon="4.49684">
        <ele>472</ele>
        <time>2020-05-21T13:25:43+02:00</time>
      </trkpt>
      <trkpt lat="46.10161" lon="4.49689">
        <ele>471</ele>
        <time>2020-05-21T13:26:01+02:00</time>
      </trkpt>
      <trkpt lat="46.10167" lon="4.49743">
        <ele>473</ele>
        <time>2020-05-21T13:26:51+02:00</time>
      </trkpt>
      <trkpt lat="46.10172" lon="4.49801">
        <ele>471</ele>
        <time>2020-05-21T13:27:45+02:00</time>
      </trkpt>
      <trkpt lat="46.1012" lon="4.4973">
        <ele>466</ele>
        <time>2020-05-21T13:29:21+02:00</time>
      </trkpt>
      <trkpt lat="46.1012" lon="4.49673">
        <ele>462</ele>
        <time>2020-05-21T13:30:14+02:00</time>
      </trkpt>
      <trkpt lat="46.10122" lon="4.49611">
        <ele>458</ele>
        <time>2020-05-21T13:31:11+02:00</time>
      </trkpt>
      <trkpt lat="46.10107" lon="4.49611">
        <ele>456</ele>
        <time>2020-05-21T13:31:31+02:00</time>
      </trkpt>
      <trkpt lat="46.10095" lon="4.49494">
        <ele>456</ele>
        <time>2020-05-21T13:33:20+02:00</time>
      </trkpt>
    </trkseg>
  </trk>
</gpx>